createdAt,value
2019-06-20T00:00:18.969Z,65.17
2019-06-20T00:01:19.005Z,65.37
2019-06-20T00:02:19.044Z,65.37
2019-06-20T00:03:19.092Z,64.98
2019-06-20T00:05:19.204Z,64.40
2019-06-20T00:06:19.518Z,64.59
2019-06-20T00:07:19.245Z,64.59
2019-06-20T00:08:19.259Z,64.50
2019-06-20T00:10:19.325Z,64.69
2019-06-20T00:11:19.356Z,64.69
2019-06-20T00:12:19.695Z,64.01
2019-06-20T00:13:19.429Z,64.11
2019-06-20T00:14:19.458Z,64.11
2019-06-20T00:15:19.441Z,63.92
2019-06-20T00:16:19.542Z,63.92
2019-06-20T00:17:19.561Z,63.82
2019-06-20T00:18:19.623Z,63.62
2019-06-20T00:19:19.935Z,62.95
2019-06-20T00:20:19.676Z,63.34
2019-06-20T00:21:19.653Z,63.14
2019-06-20T00:22:19.743Z,63.62
2019-06-20T00:23:19.777Z,62.66
2019-06-20T00:24:19.807Z,62.95
2019-06-20T00:25:19.846Z,62.56
2019-06-20T00:26:20.243Z,62.85
2019-06-20T00:27:19.917Z,63.14
2019-06-20T00:28:19.955Z,63.04
2019-06-20T00:29:19.982Z,62.95
2019-06-20T00:30:20.038Z,62.75
2019-06-20T00:31:20.048Z,62.75
2019-06-20T00:32:20.102Z,62.75
2019-06-20T00:33:20.415Z,62.56
2019-06-20T00:34:20.159Z,62.46
2019-06-20T00:35:20.230Z,61.98
2019-06-20T00:36:20.229Z,62.34
2019-06-20T00:37:20.273Z,62.24
2019-06-20T00:38:20.310Z,62.63
2019-06-20T00:40:20.357Z,62.43
2019-06-20T00:41:20.696Z,62.92
2019-06-20T00:42:20.381Z,62.63
2019-06-20T00:43:20.479Z,62.82
2019-06-20T00:44:20.497Z,63.01
2019-06-20T00:45:20.540Z,62.53
2019-06-20T00:46:20.572Z,62.72
2019-06-20T00:47:20.960Z,62.92
2019-06-20T00:48:20.941Z,62.43
2019-06-20T00:49:20.673Z,62.63
2019-06-20T00:50:20.711Z,62.63
2019-06-20T00:51:20.747Z,62.24
2019-06-20T00:52:20.773Z,62.43
2019-06-20T00:53:20.814Z,62.43
2019-06-20T00:54:20.855Z,62.53
2019-06-20T00:55:21.185Z,62.53
2019-06-20T00:56:20.934Z,62.92
2019-06-20T00:57:20.982Z,62.63
2019-06-20T00:58:20.984Z,62.63
2019-06-20T00:59:21.031Z,62.69
2019-06-20T01:00:21.064Z,63.01
2019-06-20T01:01:21.089Z,63.40
2019-06-20T01:02:21.431Z,63.01
2019-06-20T01:03:21.166Z,63.08
2019-06-20T01:04:21.199Z,63.27
2019-06-20T01:06:21.262Z,63.18
2019-06-20T01:07:21.299Z,63.66
2019-06-20T01:08:21.328Z,63.08
2019-06-20T01:09:21.668Z,62.98
2019-06-20T01:10:21.401Z,63.46
2019-06-20T01:11:21.438Z,63.27
2019-06-20T01:12:21.480Z,63.27
2019-06-20T01:13:33.187Z,63.27
2019-06-20T01:14:21.601Z,63.66
2019-06-20T01:16:21.611Z,63.66
2019-06-20T01:17:21.944Z,64.14
2019-06-20T01:18:21.773Z,63.92
2019-06-20T01:19:21.735Z,64.11
2019-06-20T01:20:21.747Z,63.95
2019-06-20T01:21:21.790Z,64.24
2019-06-20T01:22:21.815Z,64.50
2019-06-20T01:23:21.850Z,64.40
2019-06-20T01:24:22.182Z,64.40
2019-06-20T01:25:21.910Z,64.21
2019-06-20T01:26:21.952Z,64.31
2019-06-20T01:27:21.993Z,64.40
2019-06-20T01:28:22.025Z,64.40
2019-06-20T01:29:22.057Z,64.40
2019-06-20T01:30:22.089Z,64.59
2019-06-20T01:31:22.435Z,64.21
2019-06-20T01:32:22.158Z,64.79
2019-06-20T01:33:22.213Z,64.59
2019-06-20T01:34:22.185Z,64.40
2019-06-20T01:35:22.296Z,64.79
2019-06-20T01:36:22.243Z,64.50
2019-06-20T01:37:22.336Z,64.40
2019-06-20T01:38:22.670Z,64.69
2019-06-20T01:40:22.384Z,64.69
2019-06-20T01:41:22.462Z,64.69
2019-06-20T01:42:22.507Z,64.31
2019-06-20T01:43:22.534Z,64.59
2019-06-20T01:44:22.574Z,64.50
2019-06-20T01:45:22.909Z,64.50
2019-06-20T01:46:22.651Z,64.59
2019-06-20T01:47:22.674Z,64.53
2019-06-20T01:49:22.741Z,64.69
2019-06-20T01:50:22.775Z,64.50
2019-06-20T01:51:22.807Z,64.98
2019-06-20T01:52:23.142Z,64.59
2019-06-20T01:53:22.887Z,65.47
2019-06-20T01:54:22.913Z,65.37
2019-06-20T01:55:22.949Z,65.17
2019-06-20T01:56:22.978Z,64.98
2019-06-20T01:57:22.966Z,65.17
2019-06-20T01:58:23.052Z,65.37
2019-06-20T01:59:23.386Z,65.27
2019-06-20T02:00:23.119Z,64.98
2019-06-20T02:01:23.154Z,65.37
2019-06-20T02:02:23.210Z,65.27
2019-06-20T02:03:23.222Z,65.27
2019-06-20T02:04:23.254Z,65.08
2019-06-20T02:05:23.293Z,64.69
2019-06-20T02:06:23.626Z,65.37
2019-06-20T02:07:23.363Z,65.17
2019-06-20T02:08:23.406Z,65.56
2019-06-20T02:09:23.433Z,65.56
2019-06-20T02:10:23.468Z,65.17
2019-06-20T02:11:23.494Z,65.17
2019-06-20T02:12:23.530Z,65.75
2019-06-20T02:14:23.920Z,65.43
2019-06-20T02:15:23.631Z,65.56
2019-06-20T02:16:23.676Z,65.85
2019-06-20T02:17:23.702Z,65.95
2019-06-20T02:18:23.729Z,65.95
2019-06-20T02:19:23.764Z,65.85
2019-06-20T02:20:23.804Z,65.66
2019-06-20T02:21:24.138Z,65.92
2019-06-20T02:22:23.829Z,65.85
2019-06-20T02:23:23.912Z,65.95
2019-06-20T02:24:23.950Z,65.85
2019-06-20T02:25:23.977Z,65.75
2019-06-20T02:26:24.016Z,65.95
2019-06-20T02:28:24.075Z,66.24
2019-06-20T02:29:24.409Z,66.50
2019-06-20T02:30:24.149Z,66.24
2019-06-20T02:32:24.205Z,66.11
2019-06-20T02:33:24.258Z,66.01
2019-06-20T02:34:24.276Z,66.01
2019-06-20T02:35:24.321Z,66.01
2019-06-20T02:36:24.654Z,66.69
2019-06-20T02:37:24.374Z,66.69
2019-06-20T02:39:24.448Z,66.30
2019-06-20T02:40:24.486Z,66.98
2019-06-20T02:41:24.530Z,66.69
2019-06-20T02:42:24.553Z,67.08
2019-06-20T02:43:24.904Z,66.88
2019-06-20T02:44:29.797Z,66.88
2019-06-20T02:45:24.653Z,66.88
2019-06-20T02:46:24.686Z,66.88
2019-06-20T02:47:24.729Z,66.69
2019-06-20T02:49:24.779Z,66.69
2019-06-20T02:50:25.124Z,66.78
2019-06-20T02:51:24.856Z,66.88
2019-06-20T02:52:24.888Z,66.98
2019-06-20T02:53:24.925Z,66.59
2019-06-20T02:54:24.962Z,66.78
2019-06-20T02:55:25.004Z,66.88
2019-06-20T02:56:25.021Z,67.17
2019-06-20T02:57:25.358Z,67.27
2019-06-20T02:58:25.085Z,67.17
2019-06-20T02:59:25.131Z,67.27
2019-06-20T03:00:25.153Z,67.46
2019-06-20T03:01:25.195Z,67.75
2019-06-20T03:02:25.228Z,67.17
2019-06-20T03:04:25.334Z,67.66
2019-06-20T03:05:25.630Z,67.75
2019-06-20T03:06:25.367Z,67.46
2019-06-20T03:07:25.392Z,67.75
2019-06-20T03:08:25.427Z,67.75
2019-06-20T03:09:25.465Z,67.75
2019-06-20T03:10:25.503Z,67.75
2019-06-20T03:11:25.536Z,68.04
2019-06-20T03:12:25.865Z,67.75
2019-06-20T03:13:25.594Z,67.94
2019-06-20T03:16:25.697Z,67.85
2019-06-20T03:17:25.739Z,67.75
2019-06-20T03:18:25.729Z,68.14
2019-06-20T03:19:26.098Z,67.75
2019-06-20T03:20:25.841Z,67.75
2019-06-20T03:21:25.871Z,67.85
2019-06-20T03:23:25.938Z,68.14
2019-06-20T03:24:25.969Z,68.14
2019-06-20T03:25:26.037Z,68.14
2019-06-20T03:26:26.337Z,68.33
2019-06-20T03:27:26.068Z,68.43
2019-06-20T03:28:26.120Z,68.72
2019-06-20T03:29:26.146Z,68.33
2019-06-20T03:30:26.188Z,68.30
2019-06-20T03:31:26.215Z,68.68
2019-06-20T03:32:26.615Z,68.68
2019-06-20T03:33:26.578Z,68.40
2019-06-20T03:34:26.319Z,68.98
2019-06-20T03:35:26.348Z,68.59
2019-06-20T03:37:26.409Z,68.68
2019-06-20T03:38:26.446Z,68.49
2019-06-20T03:39:26.485Z,68.98
2019-06-20T03:40:26.815Z,68.40
2019-06-20T03:41:26.546Z,68.68
2019-06-20T03:42:26.580Z,68.49
2019-06-20T03:43:26.688Z,68.68
2019-06-20T03:44:26.647Z,68.98
2019-06-20T03:45:26.676Z,68.88
2019-06-20T03:46:26.710Z,68.78
2019-06-20T03:47:27.051Z,68.98
2019-06-20T03:48:26.728Z,69.17
2019-06-20T03:49:26.809Z,68.98
2019-06-20T03:52:26.914Z,68.88
2019-06-20T03:53:26.950Z,68.98
2019-06-20T03:54:27.284Z,68.88
2019-06-20T03:55:27.025Z,68.98
2019-06-20T03:56:27.047Z,68.78
2019-06-20T03:57:27.083Z,69.36
2019-06-20T03:58:27.118Z,69.36
2019-06-20T03:59:27.159Z,68.88
2019-06-20T04:00:27.484Z,68.98
2019-06-20T04:01:27.216Z,69.07
2019-06-20T04:02:27.207Z,68.98
2019-06-20T04:03:27.300Z,68.78
2019-06-20T04:04:27.263Z,68.88
2019-06-20T04:05:27.357Z,68.78
2019-06-20T04:06:27.684Z,68.98
2019-06-20T04:07:27.388Z,68.68
2019-06-20T04:08:27.451Z,68.88
2019-06-20T04:10:27.519Z,68.88
2019-06-20T04:11:27.560Z,68.98
2019-06-20T04:12:27.891Z,68.68
2019-06-20T04:13:27.623Z,68.68
2019-06-20T04:14:27.652Z,68.49
2019-06-20T04:15:27.699Z,68.49
2019-06-20T04:16:27.730Z,68.59
2019-06-20T04:17:27.757Z,68.49
2019-06-20T04:18:27.792Z,68.59
2019-06-20T04:19:28.128Z,68.52
2019-06-20T04:20:27.865Z,68.62
2019-06-20T04:21:27.887Z,68.40
2019-06-20T04:22:27.926Z,68.52
2019-06-20T04:23:27.965Z,68.62
2019-06-20T04:24:28.184Z,68.62
2019-06-20T04:25:28.033Z,68.43
2019-06-20T04:26:28.365Z,68.52
2019-06-20T04:27:28.098Z,68.52
2019-06-20T04:28:28.135Z,68.43
2019-06-20T04:29:28.164Z,68.62
2019-06-20T04:30:28.195Z,68.62
2019-06-20T04:31:28.236Z,68.43
2019-06-20T04:32:28.274Z,68.43
2019-06-20T04:34:28.636Z,67.98
2019-06-20T04:35:28.364Z,67.79
2019-06-20T04:36:28.398Z,68.04
2019-06-20T04:37:28.432Z,67.59
2019-06-20T04:38:28.475Z,67.69
2019-06-20T04:39:28.508Z,67.30
2019-06-20T04:40:28.538Z,67.40
2019-06-20T04:41:28.869Z,67.21
2019-06-20T04:42:28.607Z,67.21
2019-06-20T04:43:28.635Z,66.72
2019-06-20T04:44:28.670Z,66.82
2019-06-20T04:45:35.253Z,67.01
2019-06-20T04:46:28.737Z,66.91
2019-06-20T04:47:28.772Z,66.47
2019-06-20T04:48:29.115Z,66.56
2019-06-20T04:49:28.984Z,66.17
2019-06-20T04:50:28.890Z,66.37
2019-06-20T04:51:28.912Z,66.37
2019-06-20T04:52:29.041Z,66.17
2019-06-20T04:53:28.990Z,66.47
2019-06-20T04:54:29.032Z,66.37
2019-06-20T04:55:29.355Z,65.98
2019-06-20T04:56:29.084Z,65.69
2019-06-20T04:57:29.114Z,65.69
2019-06-20T04:58:29.160Z,65.79
2019-06-20T04:59:29.201Z,66.08
2019-06-20T05:00:29.172Z,65.79
2019-06-20T05:01:29.254Z,65.98
2019-06-20T05:03:29.765Z,65.50
2019-06-20T05:04:29.354Z,65.43
2019-06-20T05:05:29.388Z,65.50
2019-06-20T05:06:29.428Z,65.63
2019-06-20T05:07:29.458Z,65.24
2019-06-20T05:08:29.447Z,65.14
2019-06-20T05:09:29.562Z,65.05
2019-06-20T05:10:29.878Z,64.85
2019-06-20T05:11:29.707Z,65.63
2019-06-20T05:12:29.639Z,65.05
2019-06-20T05:13:29.673Z,65.43
2019-06-20T05:14:29.720Z,65.24
2019-06-20T05:15:29.797Z,65.43
2019-06-20T05:16:29.788Z,65.34
2019-06-20T05:17:30.111Z,65.34
2019-06-20T05:19:29.907Z,64.95
2019-06-20T05:20:29.912Z,65.05
2019-06-20T05:21:29.969Z,64.37
2019-06-20T05:22:29.981Z,64.47
2019-06-20T05:23:30.016Z,64.40
2019-06-20T05:24:30.351Z,64.50
2019-06-20T05:25:30.087Z,64.59
2019-06-20T05:26:30.117Z,64.95
2019-06-20T05:27:30.152Z,64.79
2019-06-20T05:28:30.197Z,64.69
2019-06-20T05:29:30.267Z,64.69
2019-06-20T05:30:30.206Z,64.69
2019-06-20T05:31:30.632Z,64.89
2019-06-20T05:32:30.322Z,64.79
2019-06-20T05:33:30.364Z,64.89
2019-06-20T05:34:30.906Z,64.79
2019-06-20T05:35:30.527Z,64.89
2019-06-20T05:36:30.417Z,64.40
2019-06-20T05:38:30.534Z,64.50
2019-06-20T05:39:30.952Z,64.40
2019-06-20T05:40:30.565Z,64.50
2019-06-20T05:41:30.635Z,64.20
2019-06-20T05:42:30.736Z,64.11
2019-06-20T05:43:30.709Z,64.11
2019-06-20T05:44:30.738Z,64.30
2019-06-20T05:45:30.790Z,64.30
2019-06-20T05:46:31.111Z,64.20
2019-06-20T05:47:31.690Z,64.20
2019-06-20T05:48:30.880Z,64.11
2019-06-20T05:49:30.918Z,63.92
2019-06-20T05:50:31.051Z,63.92
2019-06-20T05:51:31.063Z,64.20
2019-06-20T05:52:31.583Z,63.92
2019-06-20T05:53:31.359Z,63.24
2019-06-20T05:54:31.198Z,63.46
2019-06-20T05:55:31.150Z,63.62
2019-06-20T05:56:31.156Z,63.37
2019-06-20T05:57:31.195Z,63.85
2019-06-20T05:58:31.230Z,63.37
2019-06-20T05:59:31.265Z,63.37
2019-06-20T06:00:31.601Z,63.17
2019-06-20T06:01:31.338Z,63.07
2019-06-20T06:02:31.541Z,63.07
2019-06-20T06:03:31.415Z,63.85
2019-06-20T06:04:31.439Z,63.37
2019-06-20T06:05:31.476Z,62.98
2019-06-20T06:06:31.574Z,63.56
2019-06-20T06:07:31.848Z,62.49
2019-06-20T06:10:31.642Z,63.17
2019-06-20T06:11:31.697Z,62.88
2019-06-20T06:12:31.736Z,62.79
2019-06-20T06:13:31.763Z,62.59
2019-06-20T06:14:32.096Z,62.79
2019-06-20T06:15:31.838Z,62.69
2019-06-20T06:16:31.932Z,62.59
2019-06-20T06:17:31.898Z,62.10
2019-06-20T06:18:31.928Z,62.59
2019-06-20T06:19:31.965Z,62.59
2019-06-20T06:20:32.007Z,62.59
2019-06-20T06:21:32.357Z,62.59
2019-06-20T06:22:32.084Z,62.79
2019-06-20T06:23:32.059Z,62.79
2019-06-20T06:24:32.085Z,62.88
2019-06-20T06:25:32.176Z,62.59
2019-06-20T06:26:32.259Z,62.82
2019-06-20T06:27:32.253Z,62.20
2019-06-20T06:28:32.584Z,62.49
2019-06-20T06:29:32.308Z,62.52
2019-06-20T06:30:32.354Z,61.72
2019-06-20T06:31:32.462Z,62.04
2019-06-20T06:32:40.143Z,61.75
2019-06-20T06:34:32.496Z,61.91
2019-06-20T06:35:32.822Z,62.01
2019-06-20T06:36:32.580Z,61.65
2019-06-20T06:37:32.591Z,62.10
2019-06-20T06:39:32.728Z,61.75
2019-06-20T06:40:32.702Z,61.75
2019-06-20T06:41:32.737Z,61.85
2019-06-20T06:42:33.178Z,61.65
2019-06-20T06:43:32.800Z,61.55
2019-06-20T06:44:32.835Z,61.26
2019-06-20T06:45:32.876Z,61.46
2019-06-20T06:46:43.638Z,61.46
2019-06-20T06:47:32.996Z,61.55
2019-06-20T06:48:32.981Z,61.17
2019-06-20T06:49:33.339Z,61.17
2019-06-20T06:50:33.062Z,61.07
2019-06-20T06:51:33.126Z,60.88
2019-06-20T06:52:33.076Z,60.68
2019-06-20T06:53:33.163Z,60.88
2019-06-20T06:54:33.192Z,60.68
2019-06-20T06:55:33.226Z,60.68
2019-06-20T06:56:33.570Z,60.49
2019-06-20T06:57:33.420Z,60.39
2019-06-20T06:58:33.336Z,60.58
2019-06-20T06:59:33.382Z,60.39
2019-06-20T07:00:33.404Z,60.58
2019-06-20T07:01:33.435Z,60.78
2019-06-20T07:02:33.772Z,60.68
2019-06-20T07:04:33.559Z,60.58
2019-06-20T07:05:33.581Z,60.49
2019-06-20T07:06:33.610Z,60.58
2019-06-20T07:07:33.643Z,60.78
2019-06-20T07:08:33.984Z,60.58
2019-06-20T07:09:35.456Z,60.58
2019-06-20T07:10:33.756Z,60.39
2019-06-20T07:11:33.801Z,60.52
2019-06-20T07:13:33.857Z,60.52
2019-06-20T07:14:34.227Z,60.58
2019-06-20T07:15:33.927Z,60.39
2019-06-20T07:16:33.969Z,59.84
2019-06-20T07:17:34.019Z,60.32
2019-06-20T07:18:34.047Z,60.91
2019-06-20T07:19:34.075Z,60.52
2019-06-20T07:20:34.115Z,60.42
2019-06-20T07:21:34.445Z,60.61
2019-06-20T07:22:34.485Z,60.81
2019-06-20T07:23:34.219Z,60.91
2019-06-20T07:25:34.291Z,60.71
2019-06-20T07:26:34.333Z,60.52
2019-06-20T07:27:34.359Z,60.71
2019-06-20T07:28:34.694Z,60.32
2019-06-20T07:29:34.428Z,60.32
2019-06-20T07:30:34.466Z,60.42
2019-06-20T07:31:34.497Z,60.81
2019-06-20T07:32:34.481Z,60.23
2019-06-20T07:33:34.578Z,60.23
2019-06-20T07:34:34.618Z,60.03
2019-06-20T07:36:34.986Z,60.42
2019-06-20T07:37:34.715Z,60.32
2019-06-20T07:38:34.752Z,60.32
2019-06-20T07:39:34.789Z,60.61
2019-06-20T07:40:34.826Z,60.42
2019-06-20T07:41:34.853Z,60.32
2019-06-20T07:42:34.895Z,60.32
2019-06-20T07:43:35.240Z,60.23
2019-06-20T07:45:34.998Z,60.61
2019-06-20T07:46:35.045Z,60.13
2019-06-20T07:47:35.174Z,60.32
2019-06-20T07:48:35.236Z,60.61
2019-06-20T07:49:35.159Z,60.42
2019-06-20T07:50:39.253Z,60.52
2019-06-20T07:52:35.260Z,60.42
2019-06-20T07:53:35.289Z,60.42
2019-06-20T07:54:35.368Z,60.52
2019-06-20T07:55:35.368Z,60.52
2019-06-20T07:56:35.407Z,60.52
2019-06-20T07:57:35.735Z,60.42
2019-06-20T07:58:35.458Z,60.32
2019-06-20T07:59:35.504Z,60.32
2019-06-20T08:00:35.537Z,60.52
2019-06-20T08:01:35.572Z,60.61
2019-06-20T08:02:35.606Z,60.52
2019-06-20T08:03:35.667Z,60.52
2019-06-20T08:04:36.148Z,60.32
2019-06-20T08:05:35.979Z,60.61
2019-06-20T08:06:35.746Z,60.52
2019-06-20T08:07:35.791Z,60.61
2019-06-20T08:10:36.017Z,60.61
2019-06-20T08:11:36.379Z,60.03
2019-06-20T08:12:36.094Z,60.23
2019-06-20T08:13:36.043Z,60.61
2019-06-20T08:14:36.035Z,60.32
2019-06-20T08:15:36.096Z,60.52
2019-06-20T08:16:36.127Z,60.71
2019-06-20T08:17:36.154Z,60.32
2019-06-20T08:18:36.485Z,60.42
2019-06-20T08:19:36.220Z,60.52
2019-06-20T08:20:36.256Z,60.23
2019-06-20T08:21:36.307Z,60.32
2019-06-20T08:22:36.363Z,60.52
2019-06-20T08:23:36.380Z,60.32
2019-06-20T08:24:36.402Z,60.23
2019-06-20T08:25:36.904Z,60.13
2019-06-20T08:26:36.491Z,60.23
2019-06-20T08:27:36.514Z,60.23
2019-06-20T08:29:36.579Z,60.13
2019-06-20T08:30:36.663Z,60.42
2019-06-20T08:31:36.695Z,60.32
2019-06-20T08:32:37.002Z,60.23
2019-06-20T08:33:36.748Z,60.23
2019-06-20T08:34:36.770Z,60.13
2019-06-20T08:35:36.802Z,60.42
2019-06-20T08:36:36.843Z,60.42
2019-06-20T08:37:36.882Z,60.23
2019-06-20T08:39:37.097Z,60.32
2019-06-20T08:40:37.281Z,59.94
2019-06-20T08:41:37.023Z,60.06
2019-06-20T08:42:37.008Z,59.84
2019-06-20T08:43:37.088Z,60.25
2019-06-20T08:44:37.190Z,60.03
2019-06-20T08:45:37.187Z,59.77
2019-06-20T08:46:37.221Z,59.87
2019-06-20T08:47:37.550Z,59.87
2019-06-20T08:48:37.265Z,59.87
2019-06-20T08:49:37.308Z,59.87
2019-06-20T08:50:37.346Z,59.67
2019-06-20T08:52:37.416Z,59.77
2019-06-20T08:53:37.398Z,59.77
2019-06-20T08:54:37.791Z,59.87
2019-06-20T08:55:37.528Z,60.06
2019-06-20T08:56:37.578Z,59.97
2019-06-20T08:57:37.594Z,59.58
2019-06-20T08:59:37.676Z,59.58
2019-06-20T09:00:38.076Z,59.77
2019-06-20T09:01:38.063Z,59.67
2019-06-20T09:02:37.796Z,59.97
2019-06-20T09:03:37.825Z,59.77
2019-06-20T09:04:37.995Z,60.16
2019-06-20T09:05:37.943Z,59.97
2019-06-20T09:06:37.938Z,59.87
2019-06-20T09:07:37.963Z,59.67
2019-06-20T09:08:38.342Z,59.67
2019-06-20T09:09:38.044Z,59.97
2019-06-20T09:10:38.071Z,59.97
2019-06-20T09:11:38.124Z,59.87
2019-06-20T09:12:38.159Z,59.97
2019-06-20T09:13:40.614Z,59.58
2019-06-20T09:14:38.233Z,59.38
2019-06-20T09:15:38.629Z,59.58
2019-06-20T09:16:38.321Z,59.51
2019-06-20T09:17:38.354Z,59.48
2019-06-20T09:18:38.313Z,59.67
2019-06-20T09:19:38.399Z,58.90
2019-06-20T09:20:38.481Z,59.31
2019-06-20T09:21:38.502Z,59.22
2019-06-20T09:22:38.860Z,59.00
2019-06-20T09:23:38.550Z,59.22
2019-06-20T09:24:38.690Z,59.22
2019-06-20T09:25:38.620Z,59.22
2019-06-20T09:26:38.672Z,59.22
2019-06-20T09:27:38.704Z,59.12
2019-06-20T09:28:39.037Z,59.22
2019-06-20T09:29:41.998Z,59.31
2019-06-20T09:30:38.798Z,59.22
2019-06-20T09:31:38.842Z,59.28
2019-06-20T09:32:38.836Z,59.41
2019-06-20T09:33:38.924Z,59.19
2019-06-20T09:34:39.257Z,59.31
2019-06-20T09:35:38.990Z,59.12
2019-06-20T09:36:39.023Z,59.03
2019-06-20T09:37:39.060Z,59.41
2019-06-20T09:38:39.097Z,59.41
2019-06-20T09:39:39.114Z,59.41
2019-06-20T09:40:39.488Z,59.03
2019-06-20T09:41:39.214Z,59.22
2019-06-20T09:42:39.258Z,59.12
2019-06-20T09:43:39.283Z,59.03
2019-06-20T09:44:39.319Z,59.03
2019-06-20T09:45:39.352Z,59.12
2019-06-20T09:46:39.398Z,59.03
2019-06-20T09:47:39.872Z,59.03
2019-06-20T09:48:39.487Z,59.03
2019-06-20T09:49:39.497Z,59.12
2019-06-20T09:51:39.659Z,59.03
2019-06-20T09:52:39.764Z,59.03
2019-06-20T09:53:39.659Z,59.03
2019-06-20T09:54:40.001Z,59.22
2019-06-20T09:55:39.723Z,58.83
2019-06-20T09:57:39.803Z,58.93
2019-06-20T09:58:39.843Z,58.73
2019-06-20T09:59:39.877Z,58.73
2019-06-20T10:00:39.918Z,58.93
2019-06-20T10:01:40.244Z,58.83
2019-06-20T10:02:39.993Z,58.93
2019-06-20T10:03:40.036Z,58.93
2019-06-20T10:04:40.072Z,59.03
2019-06-20T10:05:40.156Z,59.22
2019-06-20T10:06:40.145Z,59.22
2019-06-20T10:07:40.205Z,59.03
2019-06-20T10:08:40.530Z,59.03
2019-06-20T10:09:40.344Z,59.03
2019-06-20T10:10:40.290Z,59.22
2019-06-20T10:11:40.355Z,58.86
2019-06-20T10:13:40.568Z,58.44
2019-06-20T10:14:40.434Z,58.76
2019-06-20T10:15:42.826Z,58.57
2019-06-20T10:16:45.631Z,58.76
2019-06-20T10:18:40.530Z,58.54
2019-06-20T10:19:40.619Z,58.86
2019-06-20T10:20:40.662Z,58.83
2019-06-20T10:21:40.700Z,58.76
2019-06-20T10:22:41.041Z,58.57
2019-06-20T10:23:40.768Z,58.67
2019-06-20T10:24:40.804Z,58.37
2019-06-20T10:25:40.836Z,58.67
2019-06-20T10:26:40.906Z,58.57
2019-06-20T10:27:40.948Z,58.37
2019-06-20T10:28:40.957Z,58.76
2019-06-20T10:29:41.348Z,58.67
2019-06-20T10:30:41.035Z,58.67
2019-06-20T10:31:41.066Z,58.76
2019-06-20T10:32:41.123Z,58.86
2019-06-20T10:33:41.166Z,58.86
2019-06-20T10:34:41.201Z,58.86
2019-06-20T10:35:41.317Z,58.67
2019-06-20T10:36:41.590Z,58.57
2019-06-20T10:37:41.300Z,58.67
2019-06-20T10:38:41.336Z,58.76
2019-06-20T10:39:41.374Z,57.98
2019-06-20T10:40:41.440Z,58.28
2019-06-20T10:41:41.467Z,57.89
2019-06-20T10:42:41.485Z,58.28
2019-06-20T10:43:43.004Z,58.28
2019-06-20T10:44:41.568Z,58.18
2019-06-20T10:45:44.038Z,57.79
2019-06-20T10:46:42.871Z,58.08
2019-06-20T10:47:43.515Z,58.08
2019-06-20T10:48:43.076Z,58.18
2019-06-20T10:49:43.010Z,58.18
2019-06-20T10:50:42.634Z,58.08
2019-06-20T10:51:43.785Z,58.28
2019-06-20T10:52:42.563Z,58.57
2019-06-20T10:53:44.016Z,58.47
2019-06-20T10:55:43.249Z,58.47
2019-06-20T10:56:43.674Z,58.57
2019-06-20T10:57:42.972Z,58.57
2019-06-20T10:58:43.527Z,58.57
2019-06-20T10:59:42.750Z,58.57
2019-06-20T11:00:43.380Z,58.47
2019-06-20T11:01:42.766Z,58.18
2019-06-20T11:02:43.378Z,58.57
2019-06-20T11:03:43.492Z,58.76
2019-06-20T11:04:43.949Z,58.47
2019-06-20T11:05:43.734Z,58.76
2019-06-20T11:06:43.176Z,58.67
2019-06-20T11:07:43.755Z,58.11
2019-06-20T11:08:43.351Z,58.28
2019-06-20T11:09:42.874Z,58.18
2019-06-20T11:10:43.605Z,58.50
2019-06-20T11:11:43.075Z,57.79
2019-06-20T11:12:49.166Z,57.92
2019-06-20T11:13:42.640Z,58.01
2019-06-20T11:14:42.679Z,58.21
2019-06-20T11:15:44.011Z,58.01
2019-06-20T11:16:43.479Z,57.98
2019-06-20T11:17:44.159Z,58.08
2019-06-20T11:18:43.642Z,57.98
2019-06-20T11:19:43.759Z,58.01
2019-06-20T11:20:42.892Z,57.92
2019-06-20T11:21:43.262Z,57.92
2019-06-20T11:22:43.340Z,58.08
2019-06-20T11:23:43.056Z,58.01
2019-06-20T11:24:43.072Z,58.31
2019-06-20T11:25:43.675Z,58.01
2019-06-20T11:26:43.141Z,58.01
2019-06-20T11:27:43.259Z,58.11
2019-06-20T11:28:43.201Z,58.01
2019-06-20T11:29:44.115Z,58.01
2019-06-20T11:30:54.082Z,58.01
2019-06-20T11:31:46.008Z,57.92
2019-06-20T11:32:43.557Z,58.11
2019-06-20T11:33:44.161Z,58.01
2019-06-20T11:35:43.761Z,57.92
2019-06-20T11:36:45.087Z,57.92
2019-06-20T11:37:44.737Z,58.31
2019-06-20T11:39:43.615Z,58.01
2019-06-20T11:40:43.962Z,58.21
2019-06-20T11:41:43.726Z,58.31
2019-06-20T11:42:44.624Z,58.31
2019-06-20T11:43:43.764Z,58.21
2019-06-20T11:44:43.807Z,57.92
2019-06-20T11:45:43.841Z,58.21
2019-06-20T11:46:43.880Z,57.92
2019-06-20T11:48:43.954Z,57.43
2019-06-20T11:49:44.302Z,57.62
2019-06-20T11:50:44.037Z,57.72
2019-06-20T11:51:44.070Z,57.53
2019-06-20T11:52:45.762Z,57.92
2019-06-20T11:53:44.135Z,57.82
2019-06-20T11:54:44.181Z,57.72
2019-06-20T11:55:44.223Z,57.62
2019-06-20T11:56:44.572Z,57.72
2019-06-20T11:57:44.496Z,57.53
2019-06-20T11:58:44.331Z,57.53
2019-06-20T11:59:44.364Z,57.72
2019-06-20T12:00:44.397Z,57.72
2019-06-20T12:01:44.884Z,57.72
2019-06-20T12:02:46.017Z,57.53
2019-06-20T12:03:44.819Z,57.72
2019-06-20T12:04:44.943Z,57.72
2019-06-20T12:05:44.867Z,57.82
2019-06-20T12:06:44.931Z,57.72
2019-06-20T12:07:45.627Z,57.53
2019-06-20T12:08:45.217Z,57.62
2019-06-20T12:09:44.813Z,57.72
2019-06-20T12:10:45.213Z,57.72
2019-06-20T12:11:44.827Z,57.72
2019-06-20T12:12:44.894Z,57.62
2019-06-20T12:13:44.891Z,57.62
2019-06-20T12:14:44.935Z,57.62
2019-06-20T12:15:45.005Z,57.72
2019-06-20T12:18:45.222Z,57.62
2019-06-20T12:19:46.628Z,57.53
2019-06-20T12:20:45.167Z,57.72
2019-06-20T12:21:45.200Z,57.72
2019-06-20T12:22:46.522Z,57.62
2019-06-20T12:23:45.273Z,57.62
2019-06-20T12:24:46.606Z,57.53
2019-06-20T12:25:46.554Z,57.72
2019-06-20T12:26:46.838Z,57.72
2019-06-20T12:27:45.689Z,57.72
2019-06-20T12:28:46.590Z,57.75
2019-06-20T12:29:46.499Z,57.62
2019-06-20T12:30:45.628Z,57.72
2019-06-20T12:31:45.933Z,57.53
2019-06-20T12:32:46.857Z,57.72
2019-06-20T12:34:46.583Z,57.62
2019-06-20T12:35:46.681Z,57.62
2019-06-20T12:36:46.639Z,57.72
2019-06-20T12:37:45.941Z,57.82
2019-06-20T12:38:46.257Z,58.01
2019-06-20T12:39:46.375Z,58.31
2019-06-20T12:40:46.265Z,58.21
2019-06-20T12:41:47.517Z,58.11
2019-06-20T12:42:46.787Z,58.01
2019-06-20T12:43:46.363Z,58.01
2019-06-20T12:45:47.316Z,58.21
2019-06-20T12:46:47.033Z,58.11
2019-06-20T12:47:46.317Z,58.40
2019-06-20T12:48:46.988Z,58.40
2019-06-20T12:49:46.199Z,58.11
2019-06-20T12:50:47.559Z,58.31
2019-06-20T12:51:47.018Z,58.69
2019-06-20T12:52:47.682Z,58.59
2019-06-20T12:53:46.606Z,58.50
2019-06-20T12:54:47.052Z,58.59
2019-06-20T12:55:47.557Z,58.89
2019-06-20T12:57:46.660Z,58.69
2019-06-20T12:58:46.765Z,58.67
2019-06-20T12:59:46.626Z,58.59
2019-06-20T13:00:46.695Z,58.57
2019-06-20T13:01:48.360Z,58.69
2019-06-20T13:02:47.434Z,58.98
2019-06-20T13:03:48.001Z,58.79
2019-06-20T13:04:46.814Z,58.47
2019-06-20T13:05:47.148Z,58.50
2019-06-20T13:06:47.031Z,58.98
2019-06-20T13:07:46.953Z,58.98
2019-06-20T13:08:47.340Z,58.95
2019-06-20T13:09:48.359Z,58.86
2019-06-20T13:10:48.219Z,58.98
2019-06-20T13:11:47.091Z,59.28
2019-06-20T13:12:47.113Z,59.25
2019-06-20T13:13:47.150Z,58.47
2019-06-20T13:14:47.579Z,58.57
2019-06-20T13:15:47.223Z,58.86
2019-06-20T13:16:48.157Z,58.95
2019-06-20T13:17:48.893Z,59.15
2019-06-20T13:18:48.317Z,59.05
2019-06-20T13:19:48.537Z,58.86
2019-06-20T13:20:48.449Z,58.76
2019-06-20T13:21:48.613Z,58.95
2019-06-20T13:22:49.380Z,58.86
2019-06-20T13:23:47.817Z,59.05
2019-06-20T13:24:47.549Z,59.25
2019-06-20T13:25:48.886Z,59.15
2019-06-20T13:26:49.024Z,59.15
2019-06-20T13:27:47.987Z,59.15
2019-06-20T13:29:00.613Z,58.95
2019-06-20T13:29:47.760Z,59.25
2019-06-20T13:30:50.835Z,59.15
2019-06-20T13:32:01.944Z,59.54
2019-06-20T13:32:48.973Z,59.44
2019-06-20T13:33:48.919Z,59.54
2019-06-20T13:34:48.950Z,59.15
2019-06-20T13:36:49.058Z,59.15
2019-06-20T13:37:49.791Z,59.25
2019-06-20T13:38:48.825Z,59.25
2019-06-20T13:39:48.056Z,59.15
2019-06-20T13:40:49.317Z,59.34
2019-06-20T13:41:48.184Z,59.25
2019-06-20T13:42:48.244Z,59.15
2019-06-20T13:43:48.558Z,59.05
2019-06-20T13:44:48.337Z,59.05
2019-06-20T13:46:48.998Z,58.98
2019-06-20T13:47:49.792Z,58.95